^^
Saratoga-Weather Station Historical Data
Daily Summary for June 15, 2020 Units:  Both    English   Metric
Daily Weekly Monthly Yearly Custom
  High: Low: Average:
Temperature: 59.7 °F /  15.4 °C 37 °F /  2.8 °C 47.7 °F /  8.7 °C
Dew Point: 45 °F /  7.2 °C 34.9 °F /  1.6 °C 39.6 °F /  4.2 °C
Humidity: 94% 45% 75%
Wind Speed: 13mph /  20.9km/h - 1.2mph /  1.9km/h
Wind Gust: 15mph /  24.1km/h - -
Wind- - ESE
Pressure: 30.1 in /  1019.6 hPa 29.9 in /  1012.2 hPa -
Precipitation: 0 in /  0.0 mm    
Historical Graphs
 
 
Tabular Data for June 15, 2020
Time Temperature Dew Point Pressure Wind Wind Speed Wind Gust Humidity Rainfall Rate (Hourly) solar
00:03 45.9 °F /  7.7 °C 39.4 °F /  4.1 °C 30.1in /  1019.6hPa ENE 2mph /  3.2km/h 2mph /  3.2km/h 78% 0in /  0.0mm 0 W/m2
00:08 45.7 °F /  7.6 °C 39.2 °F /  4 °C 30.1in /  1019.6hPa Calm   1mph /  1.6km/h 78% 0in /  0.0mm 0 W/m2
00:13 45.5 °F /  7.5 °C 39.4 °F /  4.1 °C 30.1in /  1019.6hPa ENE 0.9mph /  1.4km/h 1mph /  1.6km/h 79% 0in /  0.0mm 0 W/m2
00:18 45.3 °F /  7.4 °C 39.2 °F /  4 °C 30.1in /  1019.6hPa Calm   1mph /  1.6km/h 79% 0in /  0.0mm 0 W/m2
00:23 45.1 °F /  7.3 °C 39 °F /  3.9 °C 30.1in /  1019.6hPa Calm   1mph /  1.6km/h 79% 0in /  0.0mm 0 W/m2
00:28 45 °F /  7.2 °C 39.2 °F /  4 °C 30.1in /  1019.6hPa Calm   1mph /  1.6km/h 80% 0in /  0.0mm 0 W/m2
00:33 44.8 °F /  7.1 °C 39 °F /  3.9 °C 30.1in /  1019.6hPa ENE 2mph /  3.2km/h 3mph /  4.8km/h 80% 0in /  0.0mm 0 W/m2
00:38 45 °F /  7.2 °C 39.2 °F /  4 °C 30.1in /  1019.6hPa Calm   2mph /  3.2km/h 80% 0in /  0.0mm 0 W/m2
00:43 44.8 °F /  7.1 °C 38.7 °F /  3.7 °C 30.1in /  1019.6hPa ENE 0.9mph /  1.4km/h 1mph /  1.6km/h 79% 0in /  0.0mm 0 W/m2
00:48 44.8 °F /  7.1 °C 38.7 °F /  3.7 °C 30.1in /  1019.6hPa ENE 2mph /  3.2km/h 2mph /  3.2km/h 79% 0in /  0.0mm 0 W/m2
00:53 44.6 °F /  7 °C 38.5 °F /  3.6 °C 30.1in /  1019.6hPa ENE 0.9mph /  1.4km/h 1mph /  1.6km/h 79% 0in /  0.0mm 0 W/m2
00:58 44.2 °F /  6.8 °C 38.1 °F /  3.4 °C 30.1in /  1019.6hPa ENE 0.9mph /  1.4km/h 1mph /  1.6km/h 79% 0in /  0.0mm 0 W/m2
01:03 43.9 °F /  6.6 °C 38.1 °F /  3.4 °C 30.1in /  1019.6hPa ESE 2mph /  3.2km/h 2mph /  3.2km/h 80% 0in /  0.0mm 0 W/m2
01:08 43.5 °F /  6.4 °C 38.1 °F /  3.4 °C 30.1in /  1019.6hPa Calm   1mph /  1.6km/h 81% 0in /  0.0mm 0 W/m2
01:13 43.2 °F /  6.2 °C 37.8 °F /  3.2 °C 30.1in /  1019.3hPa Calm   1mph /  1.6km/h 81% 0in /  0.0mm 0 W/m2
01:18 42.6 °F /  5.9 °C 37.6 °F /  3.1 °C 30.1in /  1019.6hPa ESE 0.9mph /  1.4km/h 1mph /  1.6km/h 82% 0in /  0.0mm 0 W/m2
01:23 42.3 °F /  5.7 °C 37.4 °F /  3 °C 30.1in /  1019.3hPa Calm   1mph /  1.6km/h 83% 0in /  0.0mm 0 W/m2
01:28 41.9 °F /  5.5 °C 37 °F /  2.8 °C 30.1in /  1019.3hPa Calm     83% 0in /  0.0mm 0 W/m2
01:33 41.5 °F /  5.3 °C 37 °F /  2.8 °C 30.1in /  1019.3hPa Calm     84% 0in /  0.0mm 0 W/m2
01:38 41.4 °F /  5.2 °C 37.2 °F /  2.9 °C 30.1in /  1019.3hPa ESE 0.9mph /  1.4km/h 2mph /  3.2km/h 85% 0in /  0.0mm 0 W/m2
01:43 41 °F /  5 °C 36.9 °F /  2.7 °C 30.1in /  1019.3hPa Calm   1mph /  1.6km/h 85% 0in /  0.0mm 0 W/m2
01:48 40.6 °F /  4.8 °C 36.9 °F /  2.7 °C 30.1in /  1019.3hPa Calm     86% 0in /  0.0mm 0 W/m2
01:53 40.6 °F /  4.8 °C 37 °F /  2.8 °C 30.1in /  1019.3hPa Calm     87% 0in /  0.0mm 0 W/m2
01:58 40.6 °F /  4.8 °C 37.4 °F /  3 °C 30.1in /  1019.3hPa Calm     88% 0in /  0.0mm 0 W/m2
02:04 40.8 °F /  4.9 °C 37.6 °F /  3.1 °C 30.1in /  1019.3hPa Calm     88% 0in /  0.0mm 0 W/m2
02:09 41 °F /  5 °C 37.8 °F /  3.2 °C 30.1in /  1019.0hPa Calm     88% 0in /  0.0mm 0 W/m2
02:14 41.2 °F /  5.1 °C 37.9 °F /  3.3 °C 30.1in /  1019.0hPa Calm     88% 0in /  0.0mm 0 W/m2
02:19 41.2 °F /  5.1 °C 37.9 °F /  3.3 °C 30.1in /  1019.0hPa Calm     88% 0in /  0.0mm 0 W/m2
02:24 41.4 °F /  5.2 °C 37.8 °F /  3.2 °C 30.1in /  1019.0hPa Calm     87% 0in /  0.0mm 0 W/m2
02:29 41.5 °F /  5.3 °C 37.9 °F /  3.3 °C 30.1in /  1019.0hPa ESE 0.9mph /  1.4km/h 3mph /  4.8km/h 87% 0in /  0.0mm 0 W/m2
02:34 41.7 °F /  5.4 °C 38.1 °F /  3.4 °C 30.1in /  1019.0hPa Calm   1mph /  1.6km/h 87% 0in /  0.0mm 0 W/m2
02:39 41.9 °F /  5.5 °C 38.3 °F /  3.5 °C 30.1in /  1019.0hPa ESE 0.9mph /  1.4km/h 3mph /  4.8km/h 87% 0in /  0.0mm 0 W/m2
02:44 42.1 °F /  5.6 °C 38.5 °F /  3.6 °C 30.1in /  1019.0hPa Calm     87% 0in /  0.0mm 0 W/m2
02:49 41.9 °F /  5.5 °C 37.9 °F /  3.3 °C 30.1in /  1019.0hPa Calm     86% 0in /  0.0mm 0 W/m2
02:54 41.9 °F /  5.5 °C 37.9 °F /  3.3 °C 30.1in /  1019.0hPa ESE 0.9mph /  1.4km/h 1mph /  1.6km/h 86% 0in /  0.0mm 0 W/m2
02:59 41.7 °F /  5.4 °C 38.1 °F /  3.4 °C 30.1in /  1018.6hPa Calm     87% 0in /  0.0mm 0 W/m2
03:04 41.7 °F /  5.4 °C 38.1 °F /  3.4 °C 30.1in /  1018.6hPa Calm     87% 0in /  0.0mm 0 W/m2
03:09 41.7 °F /  5.4 °C 38.1 °F /  3.4 °C 30.1in /  1018.6hPa Calm     87% 0in /  0.0mm 0 W/m2
03:14 41.5 °F /  5.3 °C 37.9 °F /  3.3 °C 30.1in /  1018.6hPa Calm     87% 0in /  0.0mm 0 W/m2
03:19 41.5 °F /  5.3 °C 38.3 °F /  3.5 °C 30.1in /  1018.6hPa Calm     88% 0in /  0.0mm 0 W/m2
03:24 41.5 °F /  5.3 °C 38.3 °F /  3.5 °C 30.1in /  1018.3hPa Calm     88% 0in /  0.0mm 0 W/m2
03:29 41.4 °F /  5.2 °C 38.1 °F /  3.4 °C 30.1in /  1018.3hPa Calm     88% 0in /  0.0mm 0 W/m2
03:34 41.4 °F /  5.2 °C 38.1 °F /  3.4 °C 30.1in /  1018.3hPa Calm     88% 0in /  0.0mm 0 W/m2
03:39 41.2 °F /  5.1 °C 37.9 °F /  3.3 °C 30.1in /  1018.3hPa Calm     88% 0in /  0.0mm 0 W/m2
03:44 41.2 °F /  5.1 °C 37.9 °F /  3.3 °C 30.1in /  1018.3hPa Calm     88% 0in /  0.0mm 0 W/m2
03:49 41 °F /  5 °C 37.8 °F /  3.2 °C 30.1in /  1018.3hPa Calm     88% 0in /  0.0mm 0 W/m2
03:54 40.6 °F /  4.8 °C 37.4 °F /  3 °C 30.1in /  1018.0hPa Calm     88% 0in /  0.0mm 0 W/m2
03:59 40.5 °F /  4.7 °C 37.2 °F /  2.9 °C 30.1in /  1018.0hPa Calm     88% 0in /  0.0mm 0 W/m2
04:04 40.3 °F /  4.6 °C 37 °F /  2.8 °C 30.1in /  1018.0hPa Calm     88% 0in /  0.0mm 0 W/m2
04:09 40.1 °F /  4.5 °C 37 °F /  2.8 °C 30.1in /  1018.0hPa Calm     89% 0in /  0.0mm 0 W/m2
04:14 39.9 °F /  4.4 °C 36.9 °F /  2.7 °C 30.1in /  1018.0hPa Calm     89% 0in /  0.0mm 0 W/m2
04:19 39.9 °F /  4.4 °C 37.2 °F /  2.9 °C 30.1in /  1018.0hPa Calm     90% 0in /  0.0mm 0 W/m2
04:25 40.1 °F /  4.5 °C 37.4 °F /  3 °C 30.1in /  1017.6hPa Calm     90% 0in /  0.0mm 0 W/m2
04:30 40.1 °F /  4.5 °C 37.4 °F /  3 °C 30.1in /  1017.6hPa Calm     90% 0in /  0.0mm 0 W/m2
04:35 40.1 °F /  4.5 °C 37.4 °F /  3 °C 30.1in /  1017.6hPa Calm     90% 0in /  0.0mm 0 W/m2
04:40 39.9 °F /  4.4 °C 37.2 °F /  2.9 °C 30.1in /  1017.6hPa Calm     90% 0in /  0.0mm 0 W/m2
04:45 39.7 °F /  4.3 °C 37 °F /  2.8 °C 30.1in /  1017.6hPa Calm     90% 0in /  0.0mm 0 W/m2
04:50 39.7 °F /  4.3 °C 37 °F /  2.8 °C 30.1in /  1017.6hPa Calm     90% 0in /  0.0mm 0 W/m2
04:55 39.6 °F /  4.2 °C 36.9 °F /  2.7 °C 30.1in /  1017.6hPa Calm     90% 0in /  0.0mm 0 W/m2
05:00 39.6 °F /  4.2 °C 36.9 °F /  2.7 °C 30.1in /  1017.6hPa Calm     90% 0in /  0.0mm 0 W/m2
05:05 39.4 °F /  4.1 °C 36.7 °F /  2.6 °C 30.1in /  1017.6hPa Calm     90% 0in /  0.0mm 0 W/m2
05:10 39.2 °F /  4 °C 36.5 °F /  2.5 °C 30.1in /  1017.6hPa Calm     90% 0in /  0.0mm 0 W/m2
05:15 39 °F /  3.9 °C 36.3 °F /  2.4 °C 30.1in /  1017.6hPa Calm     90% 0in /  0.0mm 0 W/m2
05:20 38.8 °F /  3.8 °C 36.1 °F /  2.3 °C 30.1in /  1017.6hPa Calm     90% 0in /  0.0mm 0 W/m2
05:25 38.7 °F /  3.7 °C 36.3 °F /  2.4 °C 30.1in /  1017.6hPa Calm     91% 0in /  0.0mm 0 W/m2
05:30 38.5 °F /  3.6 °C 36.1 °F /  2.3 °C 30in /  1017.3hPa Calm     91% 0in /  0.0mm 0 W/m2
05:35 38.3 °F /  3.5 °C 36 °F /  2.2 °C 30in /  1017.3hPa Calm     91% 0in /  0.0mm 0 W/m2
05:40 38.1 °F /  3.4 °C 35.8 °F /  2.1 °C 30in /  1017.3hPa Calm     91% 0in /  0.0mm 0 W/m2
05:45 37.9 °F /  3.3 °C 35.6 °F /  2 °C 30in /  1017.3hPa Calm     91% 0in /  0.0mm 0 W/m2
05:50 37.8 °F /  3.2 °C 35.4 °F /  1.9 °C 30in /  1017.3hPa Calm     91% 0in /  0.0mm 0 W/m2
05:55 37.8 °F /  3.2 °C 35.4 °F /  1.9 °C 30in /  1017.3hPa Calm     91% 0in /  0.0mm 0 W/m2
06:00 37.6 °F /  3.1 °C 35.4 °F /  1.9 °C 30in /  1017.3hPa Calm     92% 0in /  0.0mm 0 W/m2
06:05 37.6 °F /  3.1 °C 35.4 °F /  1.9 °C 30in /  1017.3hPa Calm     92% 0in /  0.0mm 0 W/m2
06:10 37.4 °F /  3 °C 35.2 °F /  1.8 °C 30in /  1017.3hPa Calm     92% 0in /  0.0mm 0 W/m2
06:15 37.2 °F /  2.9 °C 35.1 °F /  1.7 °C 30in /  1017.3hPa Calm     92% 0in /  0.0mm 0 W/m2
06:20 37.2 °F /  2.9 °C 35.1 °F /  1.7 °C 30in /  1017.3hPa Calm     92% 0in /  0.0mm 0 W/m2
06:25 37 °F /  2.8 °C 34.9 °F /  1.6 °C 30in /  1017.3hPa Calm     92% 0in /  0.0mm 0 W/m2
06:30 37 °F /  2.8 °C 34.9 °F /  1.6 °C 30in /  1017.3hPa Calm     92% 0in /  0.0mm 0 W/m2
06:35 37 °F /  2.8 °C 35.2 °F /  1.8 °C 30in /  1017.3hPa Calm     93% 0in /  0.0mm 0 W/m2
06:40 37.2 °F /  2.9 °C 35.4 °F /  1.9 °C 30in /  1017.3hPa Calm     93% 0in /  0.0mm 0 W/m2
06:45 37.4 °F /  3 °C 35.6 °F /  2 °C 30in /  1017.3hPa Calm     93% 0in /  0.0mm 0 W/m2
06:50 37.6 °F /  3.1 °C 36 °F /  2.2 °C 30in /  1017.3hPa Calm     94% 0in /  0.0mm 5 W/m2
06:55 37.8 °F /  3.2 °C 36.1 °F /  2.3 °C 30in /  1017.3hPa Calm     94% 0in /  0.0mm 9 W/m2
07:00 37.9 °F /  3.3 °C 36.3 °F /  2.4 °C 30in /  1017.3hPa Calm     94% 0in /  0.0mm 12 W/m2
07:06 37.9 °F /  3.3 °C 36.3 °F /  2.4 °C 30in /  1017.3hPa Calm     94% 0in /  0.0mm 12 W/m2
07:11 38.3 °F /  3.5 °C 36.7 °F /  2.6 °C 30in /  1017.3hPa Calm     94% 0in /  0.0mm 19 W/m2
07:16 38.7 °F /  3.7 °C 37 °F /  2.8 °C 30in /  1017.3hPa Calm     94% 0in /  0.0mm 19 W/m2
07:21 38.8 °F /  3.8 °C 37.2 °F /  2.9 °C 30in /  1017.3hPa Calm     94% 0in /  0.0mm 23 W/m2
07:26 39 °F /  3.9 °C 37.2 °F /  2.9 °C 30in /  1017.3hPa Calm     93% 0in /  0.0mm 23 W/m2
07:31 39.4 °F /  4.1 °C 37.6 °F /  3.1 °C 30in /  1017.3hPa Calm     93% 0in /  0.0mm 30 W/m2
07:36 39.6 °F /  4.2 °C 37.8 °F /  3.2 °C 30in /  1017.3hPa Calm     93% 0in /  0.0mm 33 W/m2
07:41 39.7 °F /  4.3 °C 37.9 °F /  3.3 °C 30in /  1017.3hPa Calm     93% 0in /  0.0mm 37 W/m2
07:46 39.9 °F /  4.4 °C 37.8 °F /  3.2 °C 30in /  1017.3hPa Calm     92% 0in /  0.0mm 40 W/m2
07:51 40.3 °F /  4.6 °C 38.1 °F /  3.4 °C 30.1in /  1017.6hPa Calm     92% 0in /  0.0mm 42 W/m2
07:56 40.5 °F /  4.7 °C 38.1 °F /  3.4 °C 30.1in /  1017.6hPa Calm     91% 0in /  0.0mm 47 W/m2
08:01 40.6 °F /  4.8 °C 38.3 °F /  3.5 °C 30.1in /  1017.6hPa Calm     91% 0in /  0.0mm 51 W/m2
08:06 40.8 °F /  4.9 °C 38.1 °F /  3.4 °C 30.1in /  1017.6hPa Calm     90% 0in /  0.0mm 60 W/m2
08:11 41 °F /  5 °C 38.3 °F /  3.5 °C 30.1in /  1017.6hPa Calm     90% 0in /  0.0mm 62 W/m2
08:16 41.2 °F /  5.1 °C 38.1 °F /  3.4 °C 30.1in /  1017.6hPa Calm   1mph /  1.6km/h 89% 0in /  0.0mm 72 W/m2
08:21 41.4 °F /  5.2 °C 38.3 °F /  3.5 °C 30.1in /  1017.6hPa Calm     89% 0in /  0.0mm 72 W/m2
08:26 41.5 °F /  5.3 °C 38.3 °F /  3.5 °C 30.1in /  1017.6hPa Calm     88% 0in /  0.0mm 81 W/m2
08:31 41.5 °F /  5.3 °C 38.3 °F /  3.5 °C 30.1in /  1017.6hPa Calm     88% 0in /  0.0mm 79 W/m2
08:36 41.7 °F /  5.4 °C 38.5 °F /  3.6 °C 30.1in /  1017.6hPa Calm     88% 0in /  0.0mm 79 W/m2
08:41 42.1 °F /  5.6 °C 38.5 °F /  3.6 °C 30.1in /  1017.6hPa Calm     87% 0in /  0.0mm 74 W/m2
08:46 42.3 °F /  5.7 °C 38.7 °F /  3.7 °C 30.1in /  1017.6hPa Calm     87% 0in /  0.0mm 83 W/m2
08:51 42.4 °F /  5.8 °C 38.5 °F /  3.6 °C 30.1in /  1017.6hPa Calm     86% 0in /  0.0mm 93 W/m2
08:56 42.4 °F /  5.8 °C 38.5 °F /  3.6 °C 30.1in /  1017.6hPa Calm     86% 0in /  0.0mm 100 W/m2
09:01 42.6 °F /  5.9 °C 38.5 °F /  3.6 °C 30.1in /  1017.6hPa Calm     85% 0in /  0.0mm 100 W/m2
09:07 43 °F /  6.1 °C 39 °F /  3.9 °C 30.1in /  1017.6hPa Calm     86% 0in /  0.0mm 120 W/m2
09:12 43.2 °F /  6.2 °C 39 °F /  3.9 °C 30.1in /  1017.6hPa SSW 0.9mph /  1.4km/h 2mph /  3.2km/h 85% 0in /  0.0mm 149 W/m2
09:17 43.5 °F /  6.4 °C 39 °F /  3.9 °C 30.1in /  1017.6hPa Calm   1mph /  1.6km/h 84% 0in /  0.0mm 167 W/m2
09:22 43.9 °F /  6.6 °C 39 °F /  3.9 °C 30.1in /  1017.6hPa East 0.9mph /  1.4km/h 3mph /  4.8km/h 83% 0in /  0.0mm 162 W/m2
09:27 44.1 °F /  6.7 °C 38.8 °F /  3.8 °C 30.1in /  1017.6hPa Calm   1mph /  1.6km/h 82% 0in /  0.0mm 179 W/m2
09:32 44.2 °F /  6.8 °C 39 °F /  3.9 °C 30.1in /  1017.6hPa ENE 2mph /  3.2km/h 2mph /  3.2km/h 82% 0in /  0.0mm 214 W/m2
09:37 44.8 °F /  7.1 °C 39.6 °F /  4.2 °C 30.1in /  1017.6hPa East 0.9mph /  1.4km/h 2mph /  3.2km/h 82% 0in /  0.0mm 218 W/m2
09:42 45.1 °F /  7.3 °C 39.7 °F /  4.3 °C 30.1in /  1017.6hPa East 0.9mph /  1.4km/h 4mph /  6.4km/h 81% 0in /  0.0mm 220 W/m2
09:47 45.3 °F /  7.4 °C 39.6 °F /  4.2 °C 30in /  1017.3hPa Calm   3mph /  4.8km/h 80% 0in /  0.0mm 206 W/m2
09:52 45.7 °F /  7.6 °C 39.9 °F /  4.4 °C 30in /  1017.3hPa East 2mph /  3.2km/h 4mph /  6.4km/h 80% 0in /  0.0mm 200 W/m2
09:57 45.9 °F /  7.7 °C 39.7 °F /  4.3 °C 30.1in /  1017.6hPa East 2mph /  3.2km/h 3mph /  4.8km/h 79% 0in /  0.0mm 193 W/m2
10:02 46 °F /  7.8 °C 39.9 °F /  4.4 °C 30.1in /  1017.6hPa ENE 2mph /  3.2km/h 2mph /  3.2km/h 79% 0in /  0.0mm 190 W/m2
10:07 46.2 °F /  7.9 °C 40.1 °F /  4.5 °C 30in /  1017.3hPa ENE 2mph /  3.2km/h 3mph /  4.8km/h 79% 0in /  0.0mm 193 W/m2
10:12 46.4 °F /  8 °C 39.9 °F /  4.4 °C 30in /  1017.3hPa East 0.9mph /  1.4km/h 3mph /  4.8km/h 78% 0in /  0.0mm 192 W/m2
10:17 46.6 °F /  8.1 °C 40.1 °F /  4.5 °C 30in /  1017.3hPa Calm   3mph /  4.8km/h 78% 0in /  0.0mm 204 W/m2
10:22 46.9 °F /  8.3 °C 40.5 °F /  4.7 °C 30in /  1017.3hPa ENE 2mph /  3.2km/h 4mph /  6.4km/h 78% 0in /  0.0mm 190 W/m2
10:27 47.3 °F /  8.5 °C 40.8 °F /  4.9 °C 30in /  1016.9hPa East 4mph /  6.4km/h 4mph /  6.4km/h 78% 0in /  0.0mm 230 W/m2
10:32 47.8 °F /  8.8 °C 41 °F /  5 °C 30in /  1016.9hPa ENE 0.9mph /  1.4km/h 3mph /  4.8km/h 77% 0in /  0.0mm 250 W/m2
10:37 48.4 °F /  9.1 °C 41.5 °F /  5.3 °C 30in /  1016.9hPa ENE 4mph /  6.4km/h 5mph /  8km/h 77% 0in /  0.0mm 464 W/m2
10:42 48.9 °F /  9.4 °C 41.4 °F /  5.2 °C 30in /  1016.9hPa NE 4mph /  6.4km/h 8mph /  12.9km/h 75% 0in /  0.0mm 487 W/m2
10:47 49.6 °F /  9.8 °C 42.1 °F /  5.6 °C 30in /  1016.9hPa East 2mph /  3.2km/h 4mph /  6.4km/h 75% 0in /  0.0mm 512 W/m2
10:52 50.5 °F /  10.3 °C 42.6 °F /  5.9 °C 30in /  1016.6hPa East 2.9mph /  4.7km/h 8mph /  12.9km/h 74% 0in /  0.0mm 466 W/m2
10:57 51.1 °F /  10.6 °C 42.8 °F /  6 °C 30in /  1016.6hPa ESE 2mph /  3.2km/h 7mph /  11.3km/h 73% 0in /  0.0mm 475 W/m2
11:02 51.6 °F /  10.9 °C 43.3 °F /  6.3 °C 30in /  1016.6hPa Calm   8mph /  12.9km/h 73% 0in /  0.0mm 480 W/m2
11:07 52.3 °F /  11.3 °C 43.5 °F /  6.4 °C 30in /  1016.6hPa West 2.9mph /  4.7km/h 10mph /  16.1km/h 72% 0in /  0.0mm 520 W/m2
11:13 52.3 °F /  11.3 °C 43.5 °F /  6.4 °C 30in /  1016.6hPa WNW 2.9mph /  4.7km/h 8mph /  12.9km/h 72% 0in /  0.0mm 366 W/m2
11:18 52.5 °F /  11.4 °C 44.1 °F /  6.7 °C 30in /  1016.6hPa ENE 0.9mph /  1.4km/h 10mph /  16.1km/h 73% 0in /  0.0mm 415 W/m2
11:23 53.2 °F /  11.8 °C 44.4 °F /  6.9 °C 30in /  1016.3hPa East 6.9mph /  11.1km/h 9mph /  14.5km/h 72% 0in /  0.0mm 494 W/m2
11:28 53.6 °F /  12 °C 44.4 °F /  6.9 °C 30in /  1016.3hPa Calm   3mph /  4.8km/h 71% 0in /  0.0mm 482 W/m2
11:33 54.1 °F /  12.3 °C 44.6 °F /  7 °C 30in /  1016.3hPa ESE 4.9mph /  7.9km/h 9mph /  14.5km/h 70% 0in /  0.0mm 506 W/m2
11:38 54.1 °F /  12.3 °C 45 °F /  7.2 °C 30in /  1016.3hPa ENE 2.9mph /  4.7km/h 6mph /  9.7km/h 71% 0in /  0.0mm 526 W/m2
11:43 54.1 °F /  12.3 °C 44.6 °F /  7 °C 30in /  1016.3hPa East 2mph /  3.2km/h 9mph /  14.5km/h 70% 0in /  0.0mm 195 W/m2
11:48 54.1 °F /  12.3 °C 44.2 °F /  6.8 °C 30in /  1016.3hPa East 2.9mph /  4.7km/h 5mph /  8km/h 69% 0in /  0.0mm 179 W/m2
11:53 54.1 °F /  12.3 °C 44.6 °F /  7 °C 30in /  1015.9hPa East 2mph /  3.2km/h 5mph /  8km/h 70% 0in /  0.0mm 200 W/m2
11:58 54.1 °F /  12.3 °C 44.2 °F /  6.8 °C 30in /  1015.9hPa NNW 4.9mph /  7.9km/h 5mph /  8km/h 69% 0in /  0.0mm 178 W/m2
12:03 54.3 °F /  12.4 °C 44.4 °F /  6.9 °C 30in /  1015.9hPa ESE 2mph /  3.2km/h 5mph /  8km/h 69% 0in /  0.0mm 508 W/m2
12:08 54.7 °F /  12.6 °C 44.2 °F /  6.8 °C 30in /  1015.9hPa East 2mph /  3.2km/h 7mph /  11.3km/h 68% 0in /  0.0mm 204 W/m2
12:13 54.7 °F /  12.6 °C 44.2 °F /  6.8 °C 30in /  1015.9hPa NNE 2mph /  3.2km/h 4mph /  6.4km/h 68% 0in /  0.0mm 253 W/m2
12:18 55 °F /  12.8 °C 44.6 °F /  7 °C 30in /  1015.9hPa SE 0.9mph /  1.4km/h 7mph /  11.3km/h 68% 0in /  0.0mm 619 W/m2
12:23 55.6 °F /  13.1 °C 44.4 °F /  6.9 °C 30in /  1015.9hPa NE 2mph /  3.2km/h 7mph /  11.3km/h 66% 0in /  0.0mm 230 W/m2
12:28 55.2 °F /  12.9 °C 44.1 °F /  6.7 °C 30in /  1015.9hPa NE 4.9mph /  7.9km/h 5mph /  8km/h 66% 0in /  0.0mm 204 W/m2
12:33 55 °F /  12.8 °C 43.9 °F /  6.6 °C 30in /  1015.9hPa Calm     66% 0in /  0.0mm 183 W/m2
12:38 55 °F /  12.8 °C 44.2 °F /  6.8 °C 30in /  1015.6hPa NNW 2.9mph /  4.7km/h 3mph /  4.8km/h 67% 0in /  0.0mm 248 W/m2
12:43 55.4 °F /  13 °C 44.2 °F /  6.8 °C 30in /  1015.6hPa NE 2mph /  3.2km/h 8mph /  12.9km/h 66% 0in /  0.0mm 360 W/m2
12:48 55.8 °F /  13.2 °C 44.6 °F /  7 °C 30in /  1015.2hPa North 0.9mph /  1.4km/h 2mph /  3.2km/h 66% 0in /  0.0mm 682 W/m2
12:53 56.1 °F /  13.4 °C 44.1 °F /  6.7 °C 30in /  1015.2hPa WNW 0.9mph /  1.4km/h 4mph /  6.4km/h 64% 0in /  0.0mm 696 W/m2
12:58 56.7 °F /  13.7 °C 44.2 °F /  6.8 °C 30in /  1015.2hPa WNW 0.9mph /  1.4km/h 2mph /  3.2km/h 63% 0in /  0.0mm 193 W/m2
13:03 56.7 °F /  13.7 °C 44.2 °F /  6.8 °C 30in /  1015.2hPa East 2mph /  3.2km/h 3mph /  4.8km/h 63% 0in /  0.0mm 179 W/m2
13:08 56.7 °F /  13.7 °C 44.2 °F /  6.8 °C 30in /  1014.9hPa ESE 6.9mph /  11.1km/h 7mph /  11.3km/h 63% 0in /  0.0mm 260 W/m2
13:13 56.7 °F /  13.7 °C 45 °F /  7.2 °C 30in /  1014.9hPa ENE 0.9mph /  1.4km/h 3mph /  4.8km/h 65% 0in /  0.0mm 679 W/m2
13:18 57 °F /  13.9 °C 44.1 °F /  6.7 °C 30in /  1014.9hPa SSE 6mph /  9.7km/h 6mph /  9.7km/h 62% 0in /  0.0mm 149 W/m2
13:23 56.8 °F /  13.8 °C 44.4 °F /  6.9 °C 30in /  1014.6hPa East 2mph /  3.2km/h 9mph /  14.5km/h 63% 0in /  0.0mm 229 W/m2
13:28 56.8 °F /  13.8 °C 43.9 °F /  6.6 °C 30in /  1014.6hPa ENE 2.9mph /  4.7km/h 12mph /  19.3km/h 62% 0in /  0.0mm 179 W/m2
13:33 56.8 °F /  13.8 °C 44.4 °F /  6.9 °C 30in /  1014.6hPa SE 4.9mph /  7.9km/h 8mph /  12.9km/h 63% 0in /  0.0mm 568 W/m2
13:38 57.4 °F /  14.1 °C 44.4 °F /  6.9 °C 30in /  1014.6hPa ESE 4.9mph /  7.9km/h 7mph /  11.3km/h 62% 0in /  0.0mm 290 W/m2
13:43 57.4 °F /  14.1 °C 44.1 °F /  6.7 °C 30in /  1014.2hPa East 2.9mph /  4.7km/h 4mph /  6.4km/h 61% 0in /  0.0mm 202 W/m2
13:48 57 °F /  13.9 °C 43.7 °F /  6.5 °C 30in /  1014.2hPa East 6mph /  9.7km/h 15mph /  24.1km/h 61% 0in /  0.0mm 244 W/m2
13:53 57.4 °F /  14.1 °C 44.1 °F /  6.7 °C 30in /  1014.2hPa East 2.9mph /  4.7km/h 7mph /  11.3km/h 61% 0in /  0.0mm 591 W/m2
13:58 57.7 °F /  14.3 °C 43.9 °F /  6.6 °C 30in /  1014.2hPa ESE 4mph /  6.4km/h 9mph /  14.5km/h 60% 0in /  0.0mm 527 W/m2
14:03 57.9 °F /  14.4 °C 43.2 °F /  6.2 °C 30in /  1014.2hPa ESE 2mph /  3.2km/h 6mph /  9.7km/h 58% 0in /  0.0mm 538 W/m2
14:08 58.1 °F /  14.5 °C 43.3 °F /  6.3 °C 29.9in /  1013.9hPa East 6mph /  9.7km/h 9mph /  14.5km/h 58% 0in /  0.0mm 464 W/m2
14:13 57.9 °F /  14.4 °C 43.2 °F /  6.2 °C 29.9in /  1013.9hPa ENE 4.9mph /  7.9km/h 12mph /  19.3km/h 58% 0in /  0.0mm 278 W/m2
14:18 57.7 °F /  14.3 °C 43 °F /  6.1 °C 29.9in /  1013.9hPa SE 2mph /  3.2km/h 5mph /  8km/h 58% 0in /  0.0mm 559 W/m2
14:23 58.1 °F /  14.5 °C 42.4 °F /  5.8 °C 29.9in /  1013.5hPa East 8.1mph /  13km/h 15mph /  24.1km/h 56% 0in /  0.0mm 508 W/m2
14:28 58.3 °F /  14.6 °C 42.6 °F /  5.9 °C 29.9in /  1013.5hPa East 2mph /  3.2km/h 7mph /  11.3km/h 56% 0in /  0.0mm 95 W/m2
14:33 58.1 °F /  14.5 °C 42.4 °F /  5.8 °C 29.9in /  1013.5hPa ENE 4mph /  6.4km/h 15mph /  24.1km/h 56% 0in /  0.0mm 452 W/m2
14:38 58.3 °F /  14.6 °C 42.3 °F /  5.7 °C 29.9in /  1013.5hPa East 2.9mph /  4.7km/h 7mph /  11.3km/h 55% 0in /  0.0mm 381 W/m2
14:43 58.3 °F /  14.6 °C 42.3 °F /  5.7 °C 29.9in /  1013.5hPa East 2.9mph /  4.7km/h 12mph /  19.3km/h 55% 0in /  0.0mm 422 W/m2
14:48 58.5 °F /  14.7 °C 42.4 °F /  5.8 °C 29.9in /  1013.5hPa ESE 4mph /  6.4km/h 10mph /  16.1km/h 55% 0in /  0.0mm 401 W/m2
14:53 58.6 °F /  14.8 °C 42.1 °F /  5.6 °C 29.9in /  1013.5hPa East 0.9mph /  1.4km/h 12mph /  19.3km/h 54% 0in /  0.0mm 448 W/m2
14:58 58.8 °F /  14.9 °C 41.7 °F /  5.4 °C 29.9in /  1013.2hPa East 4mph /  6.4km/h 7mph /  11.3km/h 53% 0in /  0.0mm 396 W/m2
15:03 59.2 °F /  15.1 °C 41.5 °F /  5.3 °C 29.9in /  1013.5hPa ESE 2.9mph /  4.7km/h 10mph /  16.1km/h 52% 0in /  0.0mm 399 W/m2
15:08 59.2 °F /  15.1 °C 41.5 °F /  5.3 °C 29.9in /  1013.5hPa ENE 2.9mph /  4.7km/h 4mph /  6.4km/h 52% 0in /  0.0mm 390 W/m2
15:13 59.4 °F /  15.2 °C 41.2 °F /  5.1 °C 29.9in /  1013.5hPa SE 4.9mph /  7.9km/h 7mph /  11.3km/h 51% 0in /  0.0mm 403 W/m2
15:18 59.5 °F /  15.3 °C 40.8 °F /  4.9 °C 29.9in /  1013.2hPa ESE 6.9mph /  11.1km/h 9mph /  14.5km/h 50% 0in /  0.0mm 362 W/m2
15:23 59.5 °F /  15.3 °C 41.4 °F /  5.2 °C 29.9in /  1013.5hPa ESE 2.9mph /  4.7km/h 9mph /  14.5km/h 51% 0in /  0.0mm 357 W/m2
15:28 59.7 °F /  15.4 °C 42.1 °F /  5.6 °C 29.9in /  1013.5hPa ENE 0.9mph /  1.4km/h 2mph /  3.2km/h 52% 0in /  0.0mm 376 W/m2
15:33 59.7 °F /  15.4 °C 39.9 °F /  4.4 °C 29.9in /  1013.2hPa East 6.9mph /  11.1km/h 8mph /  12.9km/h 48% 0in /  0.0mm 332 W/m2
15:38 59.5 °F /  15.3 °C 40.3 °F /  4.6 °C 29.9in /  1013.2hPa Calm   6mph /  9.7km/h 49% 0in /  0.0mm 355 W/m2
15:43 59.5 °F /  15.3 °C 40.3 °F /  4.6 °C 29.9in /  1013.2hPa ESE 2mph /  3.2km/h 12mph /  19.3km/h 49% 0in /  0.0mm 383 W/m2
15:48 59.4 °F /  15.2 °C 40.3 °F /  4.6 °C 29.9in /  1013.2hPa ESE 8.9mph /  14.3km/h 13mph /  20.9km/h 49% 0in /  0.0mm 323 W/m2
15:53 59.4 °F /  15.2 °C 40.3 °F /  4.6 °C 29.9in /  1013.2hPa East 2.9mph /  4.7km/h 8mph /  12.9km/h 49% 0in /  0.0mm 325 W/m2
15:58 59.5 °F /  15.3 °C 40.3 °F /  4.6 °C 29.9in /  1013.2hPa East 13mph /  20.9km/h 13mph /  20.9km/h 49% 0in /  0.0mm 301 W/m2
16:04 59.5 °F /  15.3 °C 40.3 °F /  4.6 °C 29.9in /  1012.9hPa East 4mph /  6.4km/h 6mph /  9.7km/h 49% 0in /  0.0mm 253 W/m2
16:09 59.5 °F /  15.3 °C 40.3 °F /  4.6 °C 29.9in /  1012.9hPa SE 4mph /  6.4km/h 10mph /  16.1km/h 49% 0in /  0.0mm 155 W/m2
16:14 59.4 °F /  15.2 °C 39.7 °F /  4.3 °C 29.9in /  1012.9hPa East 2.9mph /  4.7km/h 7mph /  11.3km/h 48% 0in /  0.0mm 265 W/m2
16:19 59.4 °F /  15.2 °C 40.3 °F /  4.6 °C 29.9in /  1012.9hPa ESE 0.9mph /  1.4km/h 4mph /  6.4km/h 49% 0in /  0.0mm 227 W/m2
16:24 59.5 °F /  15.3 °C 40.3 °F /  4.6 °C 29.9in /  1012.9hPa ENE 4mph /  6.4km/h 7mph /  11.3km/h 49% 0in /  0.0mm 255 W/m2
16:29 59.4 °F /  15.2 °C 39.2 °F /  4 °C 29.9in /  1012.9hPa East 0.9mph /  1.4km/h 9mph /  14.5km/h 47% 0in /  0.0mm 272 W/m2
16:34 59.4 °F /  15.2 °C 39.7 °F /  4.3 °C 29.9in /  1012.5hPa ENE 4mph /  6.4km/h 8mph /  12.9km/h 48% 0in /  0.0mm 278 W/m2
16:39 59.5 °F /  15.3 °C 39.9 °F /  4.4 °C 29.9in /  1012.5hPa ENE 2.9mph /  4.7km/h 9mph /  14.5km/h 48% 0in /  0.0mm 255 W/m2
16:44 59.7 °F /  15.4 °C 39.9 °F /  4.4 °C 29.9in /  1012.5hPa East 6mph /  9.7km/h 9mph /  14.5km/h 48% 0in /  0.0mm 250 W/m2
16:49 59.5 °F /  15.3 °C 38.7 °F /  3.7 °C 29.9in /  1012.5hPa Calm   9mph /  14.5km/h 46% 0in /  0.0mm 165 W/m2
16:54 59.4 °F /  15.2 °C 40.3 °F /  4.6 °C 29.9in /  1012.5hPa East 2.9mph /  4.7km/h 7mph /  11.3km/h 49% 0in /  0.0mm 104 W/m2
16:59 59.4 °F /  15.2 °C 39.2 °F /  4 °C 29.9in /  1012.5hPa East 2mph /  3.2km/h 9mph /  14.5km/h 47% 0in /  0.0mm 179 W/m2
17:04 59.4 °F /  15.2 °C 39.7 °F /  4.3 °C 29.9in /  1012.5hPa East 4mph /  6.4km/h 7mph /  11.3km/h 48% 0in /  0.0mm 169 W/m2
17:09 59.4 °F /  15.2 °C 39.2 °F /  4 °C 29.9in /  1012.2hPa East 6.9mph /  11.1km/h 8mph /  12.9km/h 47% 0in /  0.0mm 123 W/m2
17:14 59.2 °F /  15.1 °C 38.5 °F /  3.6 °C 29.9in /  1012.2hPa East 4mph /  6.4km/h 11mph /  17.7km/h 46% 0in /  0.0mm 114 W/m2
17:19 59 °F /  15 °C 38.3 °F /  3.5 °C 29.9in /  1012.2hPa East 8.9mph /  14.3km/h 10mph /  16.1km/h 46% 0in /  0.0mm 109 W/m2
17:24 58.8 °F /  14.9 °C 38.1 °F /  3.4 °C 29.9in /  1012.5hPa ESE 2mph /  3.2km/h 11mph /  17.7km/h 46% 0in /  0.0mm 70 W/m2
17:29 58.8 °F /  14.9 °C 37.6 °F /  3.1 °C 29.9in /  1012.2hPa SE 0.9mph /  1.4km/h 7mph /  11.3km/h 45% 0in /  0.0mm 70 W/m2
17:34 58.6 °F /  14.8 °C 37.9 °F /  3.3 °C 29.9in /  1012.2hPa East 4.9mph /  7.9km/h 5mph /  8km/h 46% 0in /  0.0mm 69 W/m2
17:39 58.6 °F /  14.8 °C 37.9 °F /  3.3 °C 29.9in /  1012.5hPa NE 4mph /  6.4km/h 6mph /  9.7km/h 46% 0in /  0.0mm 56 W/m2
17:44 58.5 °F /  14.7 °C 37.8 °F /  3.2 °C 29.9in /  1012.2hPa East 2mph /  3.2km/h 4mph /  6.4km/h 46% 0in /  0.0mm 53 W/m2
17:49 58.3 °F /  14.6 °C 38.7 °F /  3.7 °C 29.9in /  1012.2hPa NNE 2mph /  3.2km/h 6mph /  9.7km/h 48% 0in /  0.0mm 46 W/m2
17:54 57.9 °F /  14.4 °C 39.4 °F /  4.1 °C 29.9in /  1012.2hPa SSE 0.9mph /  1.4km/h 3mph /  4.8km/h 50% 0in /  0.0mm 42 W/m2
17:59 57.6 °F /  14.2 °C 37.9 °F /  3.3 °C 29.9in /  1012.2hPa NE 2mph /  3.2km/h 3mph /  4.8km/h 48% 0in /  0.0mm 40 W/m2
18:04 57.4 °F /  14.1 °C 39.4 °F /  4.1 °C 29.9in /  1012.2hPa Calm     51% 0in /  0.0mm 37 W/m2
18:09 56.8 °F /  13.8 °C 38.8 °F /  3.8 °C 29.9in /  1012.2hPa Calm   1mph /  1.6km/h 51% 0in /  0.0mm 32 W/m2
18:14 56.5 °F /  13.6 °C 39.6 °F /  4.2 °C 29.9in /  1012.2hPa WNW 0.9mph /  1.4km/h 1mph /  1.6km/h 53% 0in /  0.0mm 28 W/m2
18:19 55.9 °F /  13.3 °C 40.5 °F /  4.7 °C 29.9in /  1012.2hPa ESE 0.9mph /  1.4km/h 1mph /  1.6km/h 56% 0in /  0.0mm 23 W/m2
18:24 55.2 °F /  12.9 °C 40.3 °F /  4.6 °C 29.9in /  1012.2hPa Calm     57% 0in /  0.0mm 18 W/m2
18:29 54.7 °F /  12.6 °C 40.6 °F /  4.8 °C 29.9in /  1012.2hPa Calm     59% 0in /  0.0mm 14 W/m2
18:34 54 °F /  12.2 °C 39.9 °F /  4.4 °C 29.9in /  1012.2hPa Calm     59% 0in /  0.0mm 11 W/m2
18:39 53.2 °F /  11.8 °C 40.1 °F /  4.5 °C 29.9in /  1012.2hPa ESE 0.9mph /  1.4km/h 2mph /  3.2km/h 61% 0in /  0.0mm 5 W/m2
18:44 52.7 °F /  11.5 °C 40.1 °F /  4.5 °C 29.9in /  1012.2hPa Calm     62% 0in /  0.0mm 0 W/m2
18:49 52.2 °F /  11.2 °C 39.9 °F /  4.4 °C 29.9in /  1012.2hPa Calm     63% 0in /  0.0mm 0 W/m2
18:54 51.6 °F /  10.9 °C 39.9 °F /  4.4 °C 29.9in /  1012.5hPa Calm   1mph /  1.6km/h 64% 0in /  0.0mm 0 W/m2
18:59 51.3 °F /  10.7 °C 39.6 °F /  4.2 °C 29.9in /  1012.5hPa Calm     64% 0in /  0.0mm 0 W/m2
19:04 50.9 °F /  10.5 °C 39.6 °F /  4.2 °C 29.9in /  1012.5hPa SSE 0.9mph /  1.4km/h 2mph /  3.2km/h 65% 0in /  0.0mm 0 W/m2
19:09 50.5 °F /  10.3 °C 39.6 °F /  4.2 °C 29.9in /  1012.5hPa Calm   1mph /  1.6km/h 66% 0in /  0.0mm 0 W/m2
19:14 50.4 °F /  10.2 °C 39.4 °F /  4.1 °C 29.9in /  1012.5hPa Calm     66% 0in /  0.0mm 0 W/m2
19:19 50 °F /  10 °C 39.6 °F /  4.2 °C 29.9in /  1012.2hPa Calm   1mph /  1.6km/h 67% 0in /  0.0mm 0 W/m2
19:24 49.6 °F /  9.8 °C 39.6 °F /  4.2 °C 29.9in /  1012.2hPa Calm     68% 0in /  0.0mm 0 W/m2
19:29 49.5 °F /  9.7 °C 39.7 °F /  4.3 °C 29.9in /  1012.2hPa SSE 0.9mph /  1.4km/h 2mph /  3.2km/h 69% 0in /  0.0mm 0 W/m2
19:34 48.9 °F /  9.4 °C 39.6 °F /  4.2 °C 29.9in /  1012.5hPa Calm   1mph /  1.6km/h 70% 0in /  0.0mm 0 W/m2
19:39 48.7 °F /  9.3 °C 39.4 °F /  4.1 °C 29.9in /  1012.5hPa Calm   2mph /  3.2km/h 70% 0in /  0.0mm 0 W/m2
19:44 48.6 °F /  9.2 °C 39.2 °F /  4 °C 29.9in /  1012.5hPa Calm     70% 0in /  0.0mm 0 W/m2
19:49 48.4 °F /  9.1 °C 39.4 °F /  4.1 °C 29.9in /  1012.5hPa Calm     71% 0in /  0.0mm 0 W/m2
19:54 48.4 °F /  9.1 °C 39.7 °F /  4.3 °C 29.9in /  1012.5hPa Calm   1mph /  1.6km/h 72% 0in /  0.0mm 0 W/m2
19:59 48 °F /  8.9 °C 39.4 °F /  4.1 °C 29.9in /  1012.2hPa Calm   1mph /  1.6km/h 72% 0in /  0.0mm 0 W/m2
20:04 47.8 °F /  8.8 °C 39.6 °F /  4.2 °C 29.9in /  1012.5hPa Calm     73% 0in /  0.0mm 0 W/m2
20:09 47.7 °F /  8.7 °C 39.4 °F /  4.1 °C 29.9in /  1012.5hPa Calm     73% 0in /  0.0mm 0 W/m2
20:14 47.7 °F /  8.7 °C 39.7 °F /  4.3 °C 29.9in /  1012.2hPa Calm     74% 0in /  0.0mm 0 W/m2
20:19 47.3 °F /  8.5 °C 39.4 °F /  4.1 °C 29.9in /  1012.5hPa Calm     74% 0in /  0.0mm 0 W/m2
20:24 47.1 °F /  8.4 °C 39.2 °F /  4 °C 29.9in /  1012.5hPa Calm     74% 0in /  0.0mm 0 W/m2
20:29 46.9 °F /  8.3 °C 39.4 °F /  4.1 °C 29.9in /  1012.5hPa Calm   1mph /  1.6km/h 75% 0in /  0.0mm 0 W/m2
20:35 46.8 °F /  8.2 °C 39.2 °F /  4 °C 29.9in /  1012.5hPa SSE 0.9mph /  1.4km/h 2mph /  3.2km/h 75% 0in /  0.0mm 0 W/m2
20:40 46.6 °F /  8.1 °C 39.4 °F /  4.1 °C 29.9in /  1012.2hPa Calm     76% 0in /  0.0mm 0 W/m2
20:45 46.4 °F /  8 °C 39.2 °F /  4 °C 29.9in /  1012.2hPa Calm   2mph /  3.2km/h 76% 0in /  0.0mm 0 W/m2
20:50 46.2 °F /  7.9 °C 39.4 °F /  4.1 °C 29.9in /  1012.5hPa Calm   1mph /  1.6km/h 77% 0in /  0.0mm 0 W/m2
20:55 46 °F /  7.8 °C 39.2 °F /  4 °C 29.9in /  1012.5hPa Calm     77% 0in /  0.0mm 0 W/m2
21:00 46 °F /  7.8 °C 39.6 °F /  4.2 °C 29.9in /  1012.5hPa Calm     78% 0in /  0.0mm 0 W/m2
21:05 46 °F /  7.8 °C 39.6 °F /  4.2 °C 29.9in /  1012.5hPa Calm     78% 0in /  0.0mm 0 W/m2
21:10 45.9 °F /  7.7 °C 39.4 °F /  4.1 °C 29.9in /  1012.5hPa Calm   1mph /  1.6km/h 78% 0in /  0.0mm 0 W/m2
21:15 45.7 °F /  7.6 °C 39.2 °F /  4 °C 29.9in /  1012.5hPa Calm     78% 0in /  0.0mm 0 W/m2
21:20 45.7 °F /  7.6 °C 39.2 °F /  4 °C 29.9in /  1012.5hPa Calm   1mph /  1.6km/h 78% 0in /  0.0mm 0 W/m2
21:25 45.5 °F /  7.5 °C 39.4 °F /  4.1 °C 29.9in /  1012.5hPa Calm     79% 0in /  0.0mm 0 W/m2
21:30 45.3 °F /  7.4 °C 39.6 °F /  4.2 °C 29.9in /  1012.5hPa Calm     80% 0in /  0.0mm 0 W/m2
21:35 45.3 °F /  7.4 °C 39.6 °F /  4.2 °C 29.9in /  1012.5hPa Calm     80% 0in /  0.0mm 0 W/m2
21:40 45.1 °F /  7.3 °C 39.4 °F /  4.1 °C 29.9in /  1012.5hPa Calm     80% 0in /  0.0mm 0 W/m2
21:45 45.1 °F /  7.3 °C 39.7 °F /  4.3 °C 29.9in /  1012.5hPa Calm     81% 0in /  0.0mm 0 W/m2
21:50 45 °F /  7.2 °C 39.6 °F /  4.2 °C 29.9in /  1012.5hPa Calm     81% 0in /  0.0mm 0 W/m2
21:55 45 °F /  7.2 °C 39.6 °F /  4.2 °C 29.9in /  1012.5hPa Calm     81% 0in /  0.0mm 0 W/m2
22:00 44.8 °F /  7.1 °C 39.4 °F /  4.1 °C 29.9in /  1012.5hPa Calm     81% 0in /  0.0mm 0 W/m2
22:05 44.8 °F /  7.1 °C 39.6 °F /  4.2 °C 29.9in /  1012.5hPa Calm     82% 0in /  0.0mm 0 W/m2
22:10 44.8 °F /  7.1 °C 39.6 °F /  4.2 °C 29.9in /  1012.9hPa Calm     82% 0in /  0.0mm 0 W/m2
22:15 44.6 °F /  7 °C 39.4 °F /  4.1 °C 29.9in /  1012.5hPa Calm     82% 0in /  0.0mm 0 W/m2
22:20 44.6 °F /  7 °C 39.4 °F /  4.1 °C 29.9in /  1012.9hPa Calm     82% 0in /  0.0mm 0 W/m2
22:25 44.6 °F /  7 °C 39.4 °F /  4.1 °C 29.9in /  1012.9hPa Calm     82% 0in /  0.0mm 0 W/m2
22:30 44.8 °F /  7.1 °C 39.9 °F /  4.4 °C 29.9in /  1012.9hPa Calm     83% 0in /  0.0mm 0 W/m2
22:35 44.6 °F /  7 °C 39.7 °F /  4.3 °C 29.9in /  1012.9hPa Calm     83% 0in /  0.0mm 0 W/m2
22:40 44.4 °F /  6.9 °C 39.6 °F /  4.2 °C 29.9in /  1012.9hPa Calm     83% 0in /  0.0mm 0 W/m2
22:45 44.4 °F /  6.9 °C 39.6 °F /  4.2 °C 29.9in /  1012.9hPa SSE 0.9mph /  1.4km/h 1mph /  1.6km/h 83% 0in /  0.0mm 0 W/m2
22:50 44.4 °F /  6.9 °C 39.6 °F /  4.2 °C 29.9in /  1012.9hPa Calm   2mph /  3.2km/h 83% 0in /  0.0mm 0 W/m2
22:55 44.2 °F /  6.8 °C 39.4 °F /  4.1 °C 29.9in /  1012.9hPa Calm     83% 0in /  0.0mm 0 W/m2
23:00 44.2 °F /  6.8 °C 39.4 °F /  4.1 °C 29.9in /  1012.9hPa Calm   2mph /  3.2km/h 83% 0in /  0.0mm 0 W/m2
23:05 44.1 °F /  6.7 °C 39.2 °F /  4 °C 29.9in /  1012.9hPa Calm     83% 0in /  0.0mm 0 W/m2
23:11 43.9 °F /  6.6 °C 39 °F /  3.9 °C 29.9in /  1012.9hPa Calm     83% 0in /  0.0mm 0 W/m2
23:16 43.7 °F /  6.5 °C 38.8 °F /  3.8 °C 29.9in /  1012.9hPa Calm     83% 0in /  0.0mm 0 W/m2
23:21 43.5 °F /  6.4 °C 39 °F /  3.9 °C 29.9in /  1012.9hPa Calm     84% 0in /  0.0mm 0 W/m2
23:26 43.3 °F /  6.3 °C 38.8 °F /  3.8 °C 29.9in /  1012.9hPa Calm     84% 0in /  0.0mm 0 W/m2
23:31 43.2 °F /  6.2 °C 38.7 °F /  3.7 °C 29.9in /  1012.9hPa Calm     84% 0in /  0.0mm 0 W/m2
23:36 43 °F /  6.1 °C 38.8 °F /  3.8 °C 29.9in /  1012.9hPa Calm     85% 0in /  0.0mm 0 W/m2
23:41 43 °F /  6.1 °C 38.8 °F /  3.8 °C 29.9in /  1012.9hPa Calm     85% 0in /  0.0mm 0 W/m2
23:46 42.8 °F /  6 °C 38.7 °F /  3.7 °C 29.9in /  1012.9hPa Calm     85% 0in /  0.0mm 0 W/m2
23:51 42.6 °F /  5.9 °C 38.5 °F /  3.6 °C 29.9in /  1012.9hPa Calm     85% 0in /  0.0mm 0 W/m2
23:56 42.6 °F /  5.9 °C 38.5 °F /  3.6 °C 29.9in /  1012.9hPa Calm     85% 0in /  0.0mm 0 W/m2
Juneau County Weather
Compliments of Weather Underground - 2 mb